SWR778 LFMN-LSZH
Flight info
| Callsign | SWR778 |
|---|---|
| Flight time | 0h 48m |
| Altitude | 30000 |
| Route | IRMAR DCT KINES DCT VANAS DCT MOBLO DCT UBIMA DCT SOSAL DCT KORED N871 BERSU |
| Aircraft | A320/M-SDE3FGHIRWY/LB1 |
Departure
| Time | 2026-05-06 15:22 |
|---|---|
| Airport | Nice-Côte d'Azur Airport (LFMN) |
Arrival
| Time | 2026-05-06 16:11 |
|---|---|
| Airport | Zürich Airport (LSZH) |
| Time | Latitude | Longitude | Altitude | Speed | Heading |
|---|---|---|---|---|---|
| 2026-05-06 14:58 | 43.66898 | 7.22340 | 22 ft | 0 kts | 136° |
| 2026-05-06 15:12 | 43.66907 | 7.22329 | 24 ft | 3 kts | 132° |
| 2026-05-06 15:12 | 43.66921 | 7.22318 | 25 ft | 2 kts | 212° |
| 2026-05-06 15:13 | 43.66926 | 7.22322 | 22 ft | 0 kts | 231° |
| 2026-05-06 15:13 | 43.66920 | 7.22313 | 24 ft | 3 kts | 231° |
| 2026-05-06 15:13 | 43.66904 | 7.22284 | 22 ft | 5 kts | 231° |
| 2026-05-06 15:13 | 43.66876 | 7.22238 | 22 ft | 7 kts | 230° |
| 2026-05-06 15:14 | 43.66838 | 7.22180 | 22 ft | 9 kts | 220° |
| 2026-05-06 15:14 | 43.66789 | 7.22114 | 22 ft | 11 kts | 229° |
| 2026-05-06 15:14 | 43.66737 | 7.22028 | 22 ft | 12 kts | 225° |
| 2026-05-06 15:14 | 43.66674 | 7.21945 | 22 ft | 12 kts | 224° |
| 2026-05-06 15:15 | 43.66606 | 7.21956 | 22 ft | 13 kts | 135° |
| 2026-05-06 15:15 | 43.66608 | 7.22048 | 22 ft | 11 kts | 44° |
| 2026-05-06 15:15 | 43.66696 | 7.22168 | 22 ft | 26 kts | 45° |
| 2026-05-06 15:15 | 43.66804 | 7.22316 | 22 ft | 12 kts | 45° |
| 2026-05-06 15:16 | 43.66800 | 7.22419 | 21 ft | 12 kts | 135° |
| 2026-05-06 15:16 | 43.66791 | 7.22431 | 21 ft | 0 kts | 138° |
| 2026-05-06 15:19 | 43.66790 | 7.22432 | 21 ft | 2 kts | 138° |
| 2026-05-06 15:19 | 43.66770 | 7.22460 | 22 ft | 7 kts | 135° |
| 2026-05-06 15:20 | 43.66705 | 7.22549 | 21 ft | 15 kts | 135° |
| 2026-05-06 15:20 | 43.66625 | 7.22660 | 22 ft | 17 kts | 135° |
| 2026-05-06 15:20 | 43.66595 | 7.22700 | 22 ft | 0 kts | 135° |
| 2026-05-06 15:21 | 43.66578 | 7.22723 | 23 ft | 14 kts | 135° |
| 2026-05-06 15:21 | 43.66461 | 7.22708 | 23 ft | 25 kts | 223° |
| 2026-05-06 15:21 | 43.66140 | 7.22264 | 27 ft | 110 kts | 225° |
| 2026-05-06 15:22 | 43.65437 | 7.21299 | 199 ft | 166 kts | 223° |
| 2026-05-06 15:22 | 43.64517 | 7.20052 | 609 ft | 200 kts | 222° |
| 2026-05-06 15:22 | 43.63502 | 7.18700 | 1524 ft | 204 kts | 223° |
| 2026-05-06 15:22 | 43.62470 | 7.17342 | 2457 ft | 206 kts | 225° |
| 2026-05-06 15:23 | 43.61422 | 7.15995 | 3419 ft | 206 kts | 223° |
| 2026-05-06 15:23 | 43.60104 | 7.15186 | 4262 ft | 221 kts | 188° |
| 2026-05-06 15:23 | 43.58574 | 7.15728 | 5058 ft | 236 kts | 157° |
| 2026-05-06 15:23 | 43.57132 | 7.16859 | 5922 ft | 240 kts | 155° |
| 2026-05-06 15:24 | 43.55615 | 7.17788 | 6735 ft | 237 kts | 172° |
| 2026-05-06 15:24 | 43.54089 | 7.17976 | 7528 ft | 230 kts | 190° |
| 2026-05-06 15:24 | 43.52517 | 7.17446 | 8448 ft | 224 kts | 207° |
| 2026-05-06 15:24 | 43.51321 | 7.16132 | 9271 ft | 220 kts | 238° |
| 2026-05-06 15:25 | 43.50822 | 7.14157 | 10094 ft | 225 kts | 265° |
| 2026-05-06 15:25 | 43.51122 | 7.11934 | 10453 ft | 255 kts | 294° |
| 2026-05-06 15:25 | 43.52407 | 7.10068 | 10779 ft | 289 kts | 327° |
| 2026-05-06 15:25 | 43.54370 | 7.08995 | 11080 ft | 318 kts | 339° |
| 2026-05-06 15:26 | 43.56592 | 7.08189 | 11458 ft | 339 kts | 343° |
| 2026-05-06 15:26 | 43.58923 | 7.07510 | 12174 ft | 346 kts | 345° |
| 2026-05-06 15:26 | 43.61304 | 7.06852 | 12969 ft | 350 kts | 345° |
| 2026-05-06 15:26 | 43.63705 | 7.06165 | 13758 ft | 354 kts | 344° |
| 2026-05-06 15:27 | 43.66125 | 7.05425 | 14454 ft | 358 kts | 343° |
| 2026-05-06 15:27 | 43.68562 | 7.04634 | 15137 ft | 362 kts | 342° |
| 2026-05-06 15:27 | 43.71027 | 7.03806 | 15796 ft | 367 kts | 341° |
| 2026-05-06 15:27 | 43.73522 | 7.02951 | 16455 ft | 371 kts | 341° |
| 2026-05-06 15:28 | 43.76039 | 7.02084 | 17132 ft | 375 kts | 340° |
| 2026-05-06 15:28 | 43.78551 | 7.01221 | 17799 ft | 379 kts | 340° |
| 2026-05-06 15:28 | 43.81129 | 7.00339 | 18424 ft | 383 kts | 340° |
| 2026-05-06 15:28 | 43.83732 | 6.99453 | 19038 ft | 387 kts | 339° |
| 2026-05-06 15:29 | 43.86363 | 6.98560 | 19617 ft | 392 kts | 340° |
| 2026-05-06 15:29 | 43.89030 | 6.97654 | 20240 ft | 397 kts | 339° |
| 2026-05-06 15:29 | 43.91734 | 6.96735 | 20790 ft | 402 kts | 339° |
| 2026-05-06 15:29 | 43.94468 | 6.95805 | 21319 ft | 407 kts | 338° |
| 2026-05-06 15:30 | 43.97237 | 6.94863 | 21856 ft | 412 kts | 338° |
| 2026-05-06 15:30 | 44.00038 | 6.93910 | 22387 ft | 417 kts | 338° |
| 2026-05-06 15:30 | 44.01917 | 6.93271 | 22777 ft | 421 kts | 338° |
| 2026-05-06 15:30 | 44.04774 | 6.92297 | 23290 ft | 426 kts | 338° |
| 2026-05-06 15:31 | 44.07663 | 6.91311 | 23714 ft | 430 kts | 338° |
| 2026-05-06 15:31 | 44.10590 | 6.90309 | 24161 ft | 434 kts | 338° |
| 2026-05-06 15:31 | 44.13537 | 6.89309 | 24579 ft | 439 kts | 339° |
| 2026-05-06 15:32 | 44.19708 | 6.88224 | 25414 ft | 452 kts | 347° |
| 2026-05-06 15:32 | 44.22838 | 6.87761 | 25838 ft | 454 kts | 346° |
| 2026-05-06 15:32 | 44.26008 | 6.87284 | 26222 ft | 457 kts | 346° |
| 2026-05-06 15:32 | 44.29179 | 6.86801 | 26519 ft | 461 kts | 346° |
| 2026-05-06 15:33 | 44.32367 | 6.86317 | 26935 ft | 463 kts | 346° |
| 2026-05-06 15:33 | 44.35580 | 6.85830 | 27339 ft | 465 kts | 346° |
| 2026-05-06 15:33 | 44.38815 | 6.85338 | 27753 ft | 468 kts | 347° |
| 2026-05-06 15:33 | 44.42069 | 6.84842 | 28141 ft | 472 kts | 347° |
| 2026-05-06 15:34 | 44.45282 | 6.84355 | 28478 ft | 474 kts | 347° |
| 2026-05-06 15:34 | 44.48578 | 6.83855 | 28996 ft | 475 kts | 347° |
| 2026-05-06 15:34 | 44.51868 | 6.83353 | 29395 ft | 478 kts | 347° |
| 2026-05-06 15:34 | 44.55185 | 6.82845 | 29772 ft | 480 kts | 347° |
| 2026-05-06 15:35 | 44.58506 | 6.82337 | 29878 ft | 476 kts | 347° |
| 2026-05-06 15:35 | 44.61743 | 6.81858 | 29891 ft | 462 kts | 347° |
| 2026-05-06 15:35 | 44.68076 | 6.80906 | 29884 ft | 455 kts | 346° |
| 2026-05-06 15:36 | 44.74317 | 6.79936 | 29892 ft | 454 kts | 346° |
| 2026-05-06 15:36 | 44.80599 | 6.78964 | 29896 ft | 455 kts | 347° |
| 2026-05-06 15:37 | 44.86926 | 6.78380 | 29885 ft | 457 kts | 351° |
| 2026-05-06 15:37 | 44.93292 | 6.78092 | 29873 ft | 456 kts | 351° |
| 2026-05-06 15:38 | 44.99630 | 6.77769 | 29888 ft | 456 kts | 351° |
| 2026-05-06 15:38 | 45.05976 | 6.77361 | 29882 ft | 456 kts | 351° |
| 2026-05-06 15:39 | 45.12323 | 6.76926 | 29888 ft | 457 kts | 351° |
| 2026-05-06 15:39 | 45.18672 | 6.76497 | 29936 ft | 456 kts | 351° |
| 2026-05-06 15:40 | 45.25015 | 6.76072 | 29918 ft | 457 kts | 351° |
| 2026-05-06 15:40 | 45.31371 | 6.75650 | 29916 ft | 457 kts | 351° |
| 2026-05-06 15:41 | 45.37676 | 6.75234 | 29916 ft | 457 kts | 351° |
| 2026-05-06 15:41 | 45.44030 | 6.74807 | 29926 ft | 458 kts | 351° |
| 2026-05-06 15:42 | 45.50381 | 6.74374 | 29927 ft | 458 kts | 351° |
| 2026-05-06 15:42 | 45.56740 | 6.73933 | 29909 ft | 456 kts | 351° |
| 2026-05-06 15:43 | 45.63107 | 6.73486 | 29930 ft | 460 kts | 352° |
| 2026-05-06 15:43 | 45.69505 | 6.73051 | 29943 ft | 461 kts | 351° |
| 2026-05-06 15:44 | 45.75903 | 6.72615 | 29932 ft | 460 kts | 352° |
| 2026-05-06 15:44 | 45.82294 | 6.72173 | 29951 ft | 459 kts | 353° |
| 2026-05-06 15:45 | 45.88678 | 6.71736 | 29945 ft | 459 kts | 352° |
| 2026-05-06 15:45 | 45.95043 | 6.71301 | 29965 ft | 457 kts | 353° |
| 2026-05-06 15:46 | 46.01355 | 6.70885 | 29959 ft | 450 kts | 353° |
| 2026-05-06 15:46 | 46.07581 | 6.70470 | 29944 ft | 446 kts | 353° |
| 2026-05-06 15:47 | 46.13792 | 6.70767 | 29938 ft | 451 kts | 8° |
| 2026-05-06 15:47 | 46.19856 | 6.73155 | 29939 ft | 452 kts | 14° |
| 2026-05-06 15:48 | 46.25895 | 6.75713 | 29935 ft | 452 kts | 14° |
| 2026-05-06 15:48 | 46.31930 | 6.78267 | 29923 ft | 451 kts | 14° |
| 2026-05-06 15:49 | 46.37947 | 6.80824 | 29931 ft | 451 kts | 14° |
| 2026-05-06 15:49 | 46.43956 | 6.83379 | 29934 ft | 450 kts | 14° |
| 2026-05-06 15:50 | 46.49961 | 6.85940 | 29890 ft | 449 kts | 15° |
| 2026-05-06 15:50 | 46.55648 | 6.89929 | 29922 ft | 463 kts | 37° |
| 2026-05-06 15:51 | 46.60251 | 6.96455 | 29921 ft | 462 kts | 53° |
| 2026-05-06 15:51 | 46.64291 | 7.03739 | 29921 ft | 463 kts | 53° |
| 2026-05-06 15:52 | 46.68324 | 7.10981 | 29921 ft | 463 kts | 53° |
| 2026-05-06 15:52 | 46.72359 | 7.18276 | 29918 ft | 462 kts | 53° |
| 2026-05-06 15:53 | 46.74375 | 7.21933 | 29246 ft | 465 kts | 53° |
| 2026-05-06 15:53 | 46.76396 | 7.25605 | 28623 ft | 460 kts | 53° |
| 2026-05-06 15:53 | 46.78383 | 7.29218 | 28022 ft | 456 kts | 53° |
| 2026-05-06 15:53 | 46.80359 | 7.32812 | 27463 ft | 451 kts | 53° |
| 2026-05-06 15:54 | 46.82315 | 7.36384 | 26891 ft | 446 kts | 54° |
| 2026-05-06 15:54 | 46.84220 | 7.39871 | 26442 ft | 440 kts | 54° |
| 2026-05-06 15:54 | 46.86120 | 7.43351 | 25952 ft | 435 kts | 54° |
| 2026-05-06 15:54 | 46.87997 | 7.46796 | 25484 ft | 430 kts | 54° |
| 2026-05-06 15:55 | 46.89848 | 7.50196 | 25013 ft | 425 kts | 54° |
| 2026-05-06 15:55 | 46.91681 | 7.53560 | 24558 ft | 420 kts | 54° |
| 2026-05-06 15:55 | 46.93490 | 7.56888 | 24102 ft | 415 kts | 53° |
| 2026-05-06 15:55 | 46.95248 | 7.60138 | 23638 ft | 412 kts | 53° |
| 2026-05-06 15:56 | 46.97016 | 7.63415 | 23117 ft | 407 kts | 53° |
| 2026-05-06 15:56 | 46.98753 | 7.66636 | 22650 ft | 402 kts | 53° |
| 2026-05-06 15:56 | 47.00482 | 7.69838 | 22188 ft | 397 kts | 53° |
| 2026-05-06 15:56 | 47.02190 | 7.73004 | 21715 ft | 393 kts | 53° |
| 2026-05-06 15:57 | 47.03881 | 7.76134 | 21258 ft | 390 kts | 53° |
| 2026-05-06 15:57 | 47.05561 | 7.79243 | 20781 ft | 387 kts | 53° |
| 2026-05-06 15:57 | 47.07226 | 7.82330 | 20325 ft | 383 kts | 53° |
| 2026-05-06 15:57 | 47.08869 | 7.85388 | 19869 ft | 380 kts | 52° |
| 2026-05-06 15:58 | 47.10501 | 7.88425 | 19397 ft | 378 kts | 52° |
| 2026-05-06 15:58 | 47.12125 | 7.91444 | 18934 ft | 376 kts | 52° |
| 2026-05-06 15:58 | 47.13644 | 7.94552 | 18472 ft | 373 kts | 61° |
| 2026-05-06 15:58 | 47.14796 | 7.97950 | 17998 ft | 371 kts | 66° |
| 2026-05-06 15:59 | 47.15885 | 8.01370 | 17538 ft | 368 kts | 66° |
| 2026-05-06 15:59 | 47.16965 | 8.04760 | 17100 ft | 365 kts | 66° |
| 2026-05-06 15:59 | 47.18036 | 8.08122 | 16668 ft | 362 kts | 66° |
| 2026-05-06 15:59 | 47.19101 | 8.11457 | 16166 ft | 361 kts | 66° |
| 2026-05-06 16:00 | 47.20168 | 8.14810 | 15676 ft | 361 kts | 66° |
| 2026-05-06 16:00 | 47.21463 | 8.17926 | 15186 ft | 362 kts | 48° |
| 2026-05-06 16:00 | 47.23448 | 8.20149 | 14685 ft | 360 kts | 24° |
| 2026-05-06 16:00 | 47.25844 | 8.21081 | 14196 ft | 355 kts | 0° |
| 2026-05-06 16:01 | 47.28248 | 8.20630 | 13723 ft | 347 kts | 338° |
| 2026-05-06 16:01 | 47.30416 | 8.19166 | 13248 ft | 341 kts | 329° |
| 2026-05-06 16:01 | 47.32533 | 8.17587 | 12778 ft | 339 kts | 329° |
| 2026-05-06 16:01 | 47.34623 | 8.16020 | 12320 ft | 336 kts | 329° |
| 2026-05-06 16:02 | 47.36701 | 8.14462 | 11856 ft | 333 kts | 329° |
| 2026-05-06 16:02 | 47.38757 | 8.12923 | 11396 ft | 331 kts | 329° |
| 2026-05-06 16:02 | 47.40806 | 8.11386 | 10931 ft | 328 kts | 329° |
| 2026-05-06 16:02 | 47.42833 | 8.09865 | 10460 ft | 327 kts | 329° |
| 2026-05-06 16:03 | 47.44852 | 8.08351 | 10046 ft | 322 kts | 329° |
| 2026-05-06 16:03 | 47.46812 | 8.06906 | 9920 ft | 309 kts | 333° |
| 2026-05-06 16:03 | 47.48880 | 8.06222 | 9774 ft | 306 kts | 356° |
| 2026-05-06 16:03 | 47.50958 | 8.06834 | 9428 ft | 308 kts | 22° |
| 2026-05-06 16:04 | 47.52676 | 8.08690 | 8969 ft | 306 kts | 49° |
| 2026-05-06 16:04 | 47.53925 | 8.11224 | 8228 ft | 304 kts | 55° |
| 2026-05-06 16:04 | 47.55117 | 8.13801 | 7507 ft | 302 kts | 56° |
| 2026-05-06 16:04 | 47.56289 | 8.16350 | 6968 ft | 294 kts | 56° |
| 2026-05-06 16:05 | 47.57400 | 8.18766 | 6795 ft | 273 kts | 56° |
| 2026-05-06 16:05 | 47.58413 | 8.20957 | 6734 ft | 251 kts | 55° |
| 2026-05-06 16:05 | 47.59394 | 8.23089 | 6643 ft | 246 kts | 58° |
| 2026-05-06 16:05 | 47.60152 | 8.25328 | 6381 ft | 245 kts | 66° |
| 2026-05-06 16:06 | 47.60851 | 8.27614 | 6024 ft | 243 kts | 66° |
| 2026-05-06 16:06 | 47.61546 | 8.29910 | 5692 ft | 245 kts | 66° |
| 2026-05-06 16:06 | 47.62024 | 8.32313 | 5345 ft | 244 kts | 90° |
| 2026-05-06 16:06 | 47.61692 | 8.34716 | 5031 ft | 237 kts | 121° |
| 2026-05-06 16:07 | 47.60674 | 8.36569 | 4718 ft | 230 kts | 142° |
| 2026-05-06 16:07 | 47.59486 | 8.38169 | 4399 ft | 231 kts | 142° |
| 2026-05-06 16:07 | 47.58300 | 8.39776 | 4075 ft | 231 kts | 142° |
| 2026-05-06 16:07 | 47.57118 | 8.41385 | 3774 ft | 231 kts | 141° |
| 2026-05-06 16:08 | 47.55944 | 8.42991 | 3467 ft | 227 kts | 141° |
| 2026-05-06 16:08 | 47.54825 | 8.44533 | 3168 ft | 213 kts | 141° |
| 2026-05-06 16:08 | 47.53792 | 8.45964 | 2905 ft | 192 kts | 142° |
| 2026-05-06 16:08 | 47.52877 | 8.47231 | 2693 ft | 169 kts | 142° |
| 2026-05-06 16:09 | 47.52057 | 8.48360 | 2453 ft | 155 kts | 141° |
| 2026-05-06 16:09 | 47.51298 | 8.49395 | 2235 ft | 147 kts | 140° |
| 2026-05-06 16:09 | 47.50565 | 8.50395 | 2043 ft | 141 kts | 144° |
| 2026-05-06 16:09 | 47.49850 | 8.51369 | 1864 ft | 140 kts | 142° |
| 2026-05-06 16:10 | 47.49135 | 8.52355 | 1701 ft | 141 kts | 139° |
| 2026-05-06 16:10 | 47.48421 | 8.53331 | 1515 ft | 139 kts | 140° |
| 2026-05-06 16:10 | 47.47727 | 8.54283 | 1395 ft | 127 kts | 140° |
| 2026-05-06 16:10 | 47.47240 | 8.54931 | 1400 ft | 50 kts | 136° |
| 2026-05-06 16:11 | 47.47016 | 8.55236 | 1395 ft | 41 kts | 138° |
| 2026-05-06 16:11 | 47.46815 | 8.55511 | 1398 ft | 38 kts | 137° |
| 2026-05-06 16:11 | 47.46663 | 8.55661 | 1399 ft | 20 kts | 169° |
| 2026-05-06 16:11 | 47.46528 | 8.55701 | 1402 ft | 18 kts | 167° |
| 2026-05-06 16:12 | 47.46435 | 8.55733 | 1396 ft | 13 kts | 167° |
| 2026-05-06 16:12 | 47.46352 | 8.55800 | 1400 ft | 14 kts | 137° |
| 2026-05-06 16:12 | 47.46285 | 8.55888 | 1402 ft | 12 kts | 144° |
| 2026-05-06 16:12 | 47.46230 | 8.55837 | 1399 ft | 12 kts | 267° |
| 2026-05-06 16:13 | 47.46239 | 8.55709 | 1401 ft | 11 kts | 273° |
| 2026-05-06 16:13 | 47.46200 | 8.55689 | 1397 ft | 0 kts | 181° |
| 2026-05-06 16:13 | 47.46199 | 8.55689 | 1397 ft | 0 kts | 181° |
| 2026-05-06 16:14 | 47.46186 | 8.55688 | 1402 ft | 3 kts | 185° |
| 2026-05-06 16:14 | 47.46166 | 8.55685 | 1397 ft | 2 kts | 186° |
| 2026-05-06 16:14 | 47.46163 | 8.55684 | 1397 ft | 0 kts | 186° |